BAV153 VVDN-VVTS
Flight info
| Callsign | BAV153 |
|---|---|
| Flight time | 1h 2m |
| Altitude | 32000 |
| Route | SADIN1G SADIN Q1 DOVIN DOVIN5E |
| Aircraft | A321/M-SDE3FGHIRWY/LB1 |
Departure
| Time | 2026-05-05 00:32 |
|---|---|
| Airport | Da Nang International Airport (VVDN) |
Arrival
| Time | 2026-05-05 01:35 |
|---|---|
| Airport | Tan Son Nhat International Airport (VVTS) |
| Time | Latitude | Longitude | Altitude | Speed | Heading |
|---|---|---|---|---|---|
| 2026-05-04 23:42 | 16.05117 | 108.20190 | 47 ft | 0 kts | 81° |
| 2026-05-05 00:23 | 16.05117 | 108.20194 | 49 ft | 1 kts | 81° |
| 2026-05-05 00:23 | 16.05118 | 108.20209 | 49 ft | 3 kts | 97° |
| 2026-05-05 00:23 | 16.05104 | 108.20232 | 49 ft | 4 kts | 145° |
| 2026-05-05 00:24 | 16.05065 | 108.20243 | 49 ft | 6 kts | 170° |
| 2026-05-05 00:24 | 16.05016 | 108.20252 | 50 ft | 6 kts | 171° |
| 2026-05-05 00:24 | 16.04973 | 108.20258 | 50 ft | 5 kts | 176° |
| 2026-05-05 00:24 | 16.04948 | 108.20229 | 50 ft | 7 kts | 261° |
| 2026-05-05 00:25 | 16.04940 | 108.20171 | 50 ft | 9 kts | 262° |
| 2026-05-05 00:25 | 16.04922 | 108.20110 | 50 ft | 8 kts | 209° |
| 2026-05-05 00:25 | 16.04863 | 108.20111 | 52 ft | 8 kts | 171° |
| 2026-05-05 00:25 | 16.04806 | 108.20119 | 52 ft | 8 kts | 172° |
| 2026-05-05 00:26 | 16.04745 | 108.20128 | 52 ft | 9 kts | 172° |
| 2026-05-05 00:26 | 16.04676 | 108.20138 | 52 ft | 10 kts | 171° |
| 2026-05-05 00:26 | 16.04603 | 108.20149 | 52 ft | 11 kts | 172° |
| 2026-05-05 00:26 | 16.04523 | 108.20160 | 52 ft | 11 kts | 172° |
| 2026-05-05 00:27 | 16.04439 | 108.20172 | 52 ft | 12 kts | 172° |
| 2026-05-05 00:27 | 16.04351 | 108.20184 | 52 ft | 13 kts | 171° |
| 2026-05-05 00:27 | 16.04256 | 108.20199 | 52 ft | 14 kts | 172° |
| 2026-05-05 00:27 | 16.04159 | 108.20213 | 53 ft | 14 kts | 172° |
| 2026-05-05 00:28 | 16.04061 | 108.20227 | 53 ft | 13 kts | 171° |
| 2026-05-05 00:28 | 16.03967 | 108.20242 | 54 ft | 13 kts | 172° |
| 2026-05-05 00:28 | 16.03875 | 108.20255 | 56 ft | 12 kts | 171° |
| 2026-05-05 00:28 | 16.03781 | 108.20269 | 55 ft | 14 kts | 172° |
| 2026-05-05 00:29 | 16.03672 | 108.20285 | 53 ft | 17 kts | 172° |
| 2026-05-05 00:29 | 16.03552 | 108.20302 | 53 ft | 17 kts | 172° |
| 2026-05-05 00:29 | 16.03429 | 108.20319 | 53 ft | 17 kts | 172° |
| 2026-05-05 00:29 | 16.03308 | 108.20337 | 53 ft | 17 kts | 172° |
| 2026-05-05 00:30 | 16.03193 | 108.20352 | 56 ft | 15 kts | 172° |
| 2026-05-05 00:30 | 16.03086 | 108.20367 | 56 ft | 15 kts | 172° |
| 2026-05-05 00:30 | 16.02998 | 108.20380 | 56 ft | 10 kts | 175° |
| 2026-05-05 00:30 | 16.02937 | 108.20349 | 56 ft | 10 kts | 244° |
| 2026-05-05 00:31 | 16.02921 | 108.20274 | 56 ft | 8 kts | 262° |
| 2026-05-05 00:31 | 16.02920 | 108.20257 | 56 ft | 1 kts | 287° |
| 2026-05-05 00:31 | 16.02932 | 108.20248 | 56 ft | 2 kts | 348° |
| 2026-05-05 00:31 | 16.02935 | 108.20248 | 56 ft | 1 kts | 351° |
| 2026-05-05 00:32 | 16.03174 | 108.20213 | 54 ft | 71 kts | 352° |
| 2026-05-05 00:32 | 16.03898 | 108.20107 | 57 ft | 135 kts | 352° |
| 2026-05-05 00:32 | 16.05017 | 108.19949 | 122 ft | 179 kts | 352° |
| 2026-05-05 00:32 | 16.06264 | 108.19765 | 720 ft | 182 kts | 353° |
| 2026-05-05 00:33 | 16.07486 | 108.19698 | 1342 ft | 177 kts | 1° |
| 2026-05-05 00:33 | 16.08761 | 108.19689 | 1618 ft | 189 kts | 359° |
| 2026-05-05 00:33 | 16.10123 | 108.19663 | 1893 ft | 201 kts | 360° |
| 2026-05-05 00:33 | 16.11590 | 108.19636 | 2151 ft | 216 kts | 359° |
| 2026-05-05 00:34 | 16.13162 | 108.19605 | 2381 ft | 235 kts | 359° |
| 2026-05-05 00:34 | 16.14862 | 108.19714 | 2673 ft | 252 kts | 17° |
| 2026-05-05 00:34 | 16.16402 | 108.20635 | 3089 ft | 262 kts | 46° |
| 2026-05-05 00:34 | 16.17354 | 108.22218 | 3715 ft | 264 kts | 72° |
| 2026-05-05 00:35 | 16.17557 | 108.24096 | 4421 ft | 265 kts | 90° |
| 2026-05-05 00:35 | 16.17553 | 108.26013 | 5110 ft | 266 kts | 89° |
| 2026-05-05 00:35 | 16.17564 | 108.27930 | 5788 ft | 268 kts | 89° |
| 2026-05-05 00:35 | 16.17583 | 108.29880 | 6466 ft | 271 kts | 89° |
| 2026-05-05 00:36 | 16.17605 | 108.31837 | 7100 ft | 274 kts | 89° |
| 2026-05-05 00:36 | 16.17628 | 108.33823 | 7650 ft | 279 kts | 89° |
| 2026-05-05 00:36 | 16.17449 | 108.35848 | 8141 ft | 286 kts | 108° |
| 2026-05-05 00:36 | 16.16415 | 108.37588 | 8746 ft | 290 kts | 135° |
| 2026-05-05 00:37 | 16.14688 | 108.38683 | 9310 ft | 294 kts | 162° |
| 2026-05-05 00:37 | 16.12675 | 108.38921 | 9846 ft | 298 kts | 179° |
| 2026-05-05 00:37 | 16.10578 | 108.38912 | 10346 ft | 304 kts | 179° |
| 2026-05-05 00:37 | 16.08417 | 108.38915 | 10604 ft | 318 kts | 179° |
| 2026-05-05 00:38 | 16.06144 | 108.38936 | 10851 ft | 332 kts | 179° |
| 2026-05-05 00:38 | 16.03763 | 108.38963 | 11187 ft | 342 kts | 179° |
| 2026-05-05 00:38 | 16.01379 | 108.38992 | 11695 ft | 345 kts | 179° |
| 2026-05-05 00:38 | 15.98957 | 108.39023 | 12231 ft | 347 kts | 179° |
| 2026-05-05 00:39 | 15.96543 | 108.39053 | 12737 ft | 350 kts | 179° |
| 2026-05-05 00:39 | 15.94084 | 108.39085 | 13237 ft | 353 kts | 178° |
| 2026-05-05 00:39 | 15.91633 | 108.39117 | 13747 ft | 355 kts | 178° |
| 2026-05-05 00:39 | 15.89148 | 108.39151 | 14257 ft | 357 kts | 179° |
| 2026-05-05 00:40 | 15.86664 | 108.39184 | 14744 ft | 359 kts | 179° |
| 2026-05-05 00:40 | 15.84157 | 108.39217 | 15217 ft | 361 kts | 179° |
| 2026-05-05 00:40 | 15.81622 | 108.39249 | 15670 ft | 363 kts | 179° |
| 2026-05-05 00:40 | 15.79102 | 108.39281 | 16103 ft | 365 kts | 179° |
| 2026-05-05 00:41 | 15.76517 | 108.39314 | 16556 ft | 368 kts | 179° |
| 2026-05-05 00:41 | 15.73972 | 108.39345 | 16968 ft | 370 kts | 179° |
| 2026-05-05 00:41 | 15.71401 | 108.39377 | 17391 ft | 371 kts | 179° |
| 2026-05-05 00:41 | 15.68783 | 108.39411 | 17812 ft | 373 kts | 179° |
| 2026-05-05 00:42 | 15.66197 | 108.39444 | 18212 ft | 375 kts | 180° |
| 2026-05-05 00:42 | 15.63567 | 108.39477 | 18587 ft | 377 kts | 180° |
| 2026-05-05 00:42 | 15.60930 | 108.39510 | 18965 ft | 379 kts | 180° |
| 2026-05-05 00:42 | 15.58278 | 108.39545 | 19346 ft | 381 kts | 180° |
| 2026-05-05 00:43 | 15.55618 | 108.39439 | 19702 ft | 383 kts | 188° |
| 2026-05-05 00:43 | 15.52989 | 108.38856 | 20051 ft | 384 kts | 198° |
| 2026-05-05 00:43 | 15.50512 | 108.37855 | 20409 ft | 385 kts | 205° |
| 2026-05-05 00:43 | 15.48054 | 108.36698 | 20760 ft | 387 kts | 206° |
| 2026-05-05 00:44 | 15.45605 | 108.35523 | 21103 ft | 389 kts | 206° |
| 2026-05-05 00:44 | 15.43144 | 108.34344 | 21435 ft | 391 kts | 206° |
| 2026-05-05 00:44 | 15.40659 | 108.33160 | 21774 ft | 393 kts | 206° |
| 2026-05-05 00:44 | 15.38166 | 108.31976 | 22107 ft | 395 kts | 206° |
| 2026-05-05 00:45 | 15.35650 | 108.30784 | 22450 ft | 396 kts | 206° |
| 2026-05-05 00:45 | 15.33133 | 108.29594 | 22785 ft | 398 kts | 206° |
| 2026-05-05 00:45 | 15.30628 | 108.28410 | 23102 ft | 400 kts | 206° |
| 2026-05-05 00:45 | 15.28065 | 108.27200 | 23432 ft | 402 kts | 206° |
| 2026-05-05 00:46 | 15.25517 | 108.25997 | 23755 ft | 403 kts | 206° |
| 2026-05-05 00:46 | 15.22981 | 108.24800 | 24069 ft | 405 kts | 206° |
| 2026-05-05 00:46 | 15.20378 | 108.23572 | 24378 ft | 407 kts | 206° |
| 2026-05-05 00:46 | 15.17786 | 108.22349 | 24683 ft | 409 kts | 206° |
| 2026-05-05 00:47 | 15.15192 | 108.21127 | 24974 ft | 412 kts | 206° |
| 2026-05-05 00:47 | 15.12589 | 108.19900 | 25259 ft | 414 kts | 206° |
| 2026-05-05 00:47 | 15.09914 | 108.18742 | 25534 ft | 418 kts | 201° |
| 2026-05-05 00:47 | 15.07101 | 108.17969 | 25813 ft | 422 kts | 193° |
| 2026-05-05 00:48 | 15.04185 | 108.17622 | 26096 ft | 425 kts | 185° |
| 2026-05-05 00:48 | 15.01197 | 108.17523 | 26386 ft | 428 kts | 183° |
| 2026-05-05 00:48 | 14.98201 | 108.17466 | 26662 ft | 430 kts | 183° |
| 2026-05-05 00:48 | 14.95192 | 108.17415 | 26936 ft | 432 kts | 183° |
| 2026-05-05 00:49 | 14.92183 | 108.17361 | 27225 ft | 433 kts | 183° |
| 2026-05-05 00:49 | 14.89169 | 108.17302 | 27500 ft | 434 kts | 183° |
| 2026-05-05 00:49 | 14.86155 | 108.17239 | 27748 ft | 436 kts | 184° |
| 2026-05-05 00:49 | 14.83111 | 108.17174 | 27997 ft | 438 kts | 183° |
| 2026-05-05 00:50 | 14.80028 | 108.17106 | 28242 ft | 440 kts | 183° |
| 2026-05-05 00:50 | 14.76961 | 108.17039 | 28474 ft | 442 kts | 183° |
| 2026-05-05 00:50 | 14.73877 | 108.16972 | 28707 ft | 444 kts | 183° |
| 2026-05-05 00:50 | 14.70791 | 108.16904 | 28956 ft | 446 kts | 184° |
| 2026-05-05 00:51 | 14.67675 | 108.16834 | 29206 ft | 447 kts | 183° |
| 2026-05-05 00:51 | 14.64545 | 108.16766 | 29467 ft | 448 kts | 183° |
| 2026-05-05 00:51 | 14.61415 | 108.16698 | 29820 ft | 447 kts | 183° |
| 2026-05-05 00:51 | 14.58319 | 108.16629 | 30197 ft | 445 kts | 183° |
| 2026-05-05 00:52 | 14.55213 | 108.16561 | 30555 ft | 444 kts | 183° |
| 2026-05-05 00:52 | 14.52118 | 108.16492 | 30846 ft | 444 kts | 183° |
| 2026-05-05 00:52 | 14.49002 | 108.16424 | 31106 ft | 445 kts | 183° |
| 2026-05-05 00:52 | 14.45912 | 108.16355 | 31363 ft | 446 kts | 183° |
| 2026-05-05 00:53 | 14.42786 | 108.16287 | 31617 ft | 447 kts | 183° |
| 2026-05-05 00:53 | 14.39666 | 108.16217 | 31872 ft | 448 kts | 183° |
| 2026-05-05 00:53 | 14.36540 | 108.16148 | 32057 ft | 450 kts | 183° |
| 2026-05-05 00:54 | 14.30305 | 108.16012 | 32066 ft | 450 kts | 183° |
| 2026-05-05 00:54 | 14.24034 | 108.15876 | 32066 ft | 450 kts | 183° |
| 2026-05-05 00:55 | 14.17771 | 108.15743 | 32075 ft | 449 kts | 183° |
| 2026-05-05 00:55 | 14.11501 | 108.15609 | 32074 ft | 450 kts | 183° |
| 2026-05-05 00:56 | 14.05209 | 108.15475 | 32069 ft | 449 kts | 182° |
| 2026-05-05 00:56 | 13.98941 | 108.15341 | 32060 ft | 449 kts | 182° |
| 2026-05-05 00:57 | 13.92688 | 108.15205 | 32052 ft | 449 kts | 183° |
| 2026-05-05 00:57 | 13.86443 | 108.15069 | 32046 ft | 448 kts | 182° |
| 2026-05-05 00:58 | 13.80198 | 108.14932 | 32033 ft | 448 kts | 182° |
| 2026-05-05 00:58 | 13.73943 | 108.14796 | 32025 ft | 447 kts | 182° |
| 2026-05-05 00:59 | 13.67722 | 108.14658 | 32019 ft | 447 kts | 182° |
| 2026-05-05 00:59 | 13.61481 | 108.14521 | 32008 ft | 448 kts | 182° |
| 2026-05-05 01:00 | 13.55246 | 108.14385 | 31978 ft | 445 kts | 182° |
| 2026-05-05 01:00 | 13.52167 | 108.14318 | 31677 ft | 441 kts | 182° |
| 2026-05-05 01:00 | 13.49095 | 108.14250 | 30955 ft | 443 kts | 182° |
| 2026-05-05 01:00 | 13.45968 | 108.14180 | 30321 ft | 456 kts | 182° |
| 2026-05-05 01:01 | 13.42716 | 108.14108 | 30016 ft | 468 kts | 182° |
| 2026-05-05 01:01 | 13.36126 | 108.13963 | 29996 ft | 480 kts | 182° |
| 2026-05-05 01:02 | 13.29367 | 108.13811 | 30002 ft | 490 kts | 182° |
| 2026-05-05 01:02 | 13.22489 | 108.13644 | 30004 ft | 492 kts | 181° |
| 2026-05-05 01:03 | 13.15649 | 108.13480 | 30004 ft | 491 kts | 181° |
| 2026-05-05 01:03 | 13.08800 | 108.13317 | 30001 ft | 490 kts | 182° |
| 2026-05-05 01:04 | 13.02004 | 108.13154 | 29995 ft | 489 kts | 181° |
| 2026-05-05 01:04 | 12.91769 | 108.12909 | 29990 ft | 489 kts | 182° |
| 2026-05-05 01:05 | 12.84932 | 108.12744 | 29987 ft | 490 kts | 181° |
| 2026-05-05 01:05 | 12.78136 | 108.12581 | 29986 ft | 489 kts | 181° |
| 2026-05-05 01:06 | 12.71306 | 108.12417 | 29991 ft | 489 kts | 181° |
| 2026-05-05 01:06 | 12.64457 | 108.12258 | 29991 ft | 490 kts | 181° |
| 2026-05-05 01:07 | 12.57665 | 108.12123 | 29995 ft | 489 kts | 181° |
| 2026-05-05 01:07 | 12.50829 | 108.11989 | 29991 ft | 489 kts | 181° |
| 2026-05-05 01:08 | 12.43996 | 108.11853 | 30001 ft | 489 kts | 181° |
| 2026-05-05 01:08 | 12.37197 | 108.11717 | 30014 ft | 489 kts | 181° |
| 2026-05-05 01:09 | 12.30383 | 108.11583 | 30026 ft | 490 kts | 181° |
| 2026-05-05 01:09 | 12.23548 | 108.11446 | 30042 ft | 490 kts | 181° |
| 2026-05-05 01:10 | 12.16732 | 108.11311 | 30054 ft | 489 kts | 181° |
| 2026-05-05 01:10 | 12.09889 | 108.11173 | 30065 ft | 488 kts | 181° |
| 2026-05-05 01:11 | 12.03088 | 108.11037 | 30073 ft | 489 kts | 181° |
| 2026-05-05 01:11 | 11.96284 | 108.10750 | 30074 ft | 489 kts | 188° |
| 2026-05-05 01:12 | 11.89850 | 108.08778 | 29792 ft | 476 kts | 206° |
| 2026-05-05 01:12 | 11.87021 | 108.07115 | 29397 ft | 464 kts | 215° |
| 2026-05-05 01:12 | 11.84481 | 108.05172 | 29144 ft | 451 kts | 218° |
| 2026-05-05 01:13 | 11.82020 | 108.03194 | 28884 ft | 439 kts | 219° |
| 2026-05-05 01:13 | 11.79649 | 108.01275 | 28629 ft | 433 kts | 219° |
| 2026-05-05 01:13 | 11.77300 | 107.99379 | 28378 ft | 434 kts | 219° |
| 2026-05-05 01:13 | 11.74944 | 107.97482 | 27977 ft | 435 kts | 218° |
| 2026-05-05 01:14 | 11.72552 | 107.95562 | 27463 ft | 430 kts | 218° |
| 2026-05-05 01:14 | 11.70219 | 107.93693 | 27037 ft | 426 kts | 218° |
| 2026-05-05 01:14 | 11.67897 | 107.91837 | 26562 ft | 422 kts | 218° |
| 2026-05-05 01:14 | 11.65617 | 107.90018 | 26056 ft | 419 kts | 218° |
| 2026-05-05 01:15 | 11.63316 | 107.88184 | 25515 ft | 416 kts | 218° |
| 2026-05-05 01:15 | 11.61050 | 107.86378 | 24972 ft | 414 kts | 218° |
| 2026-05-05 01:15 | 11.58760 | 107.84553 | 24424 ft | 412 kts | 218° |
| 2026-05-05 01:15 | 11.56518 | 107.82767 | 23892 ft | 410 kts | 218° |
| 2026-05-05 01:16 | 11.54278 | 107.80983 | 23367 ft | 408 kts | 218° |
| 2026-05-05 01:16 | 11.52062 | 107.79218 | 22843 ft | 406 kts | 218° |
| 2026-05-05 01:16 | 11.49827 | 107.77437 | 22314 ft | 404 kts | 218° |
| 2026-05-05 01:16 | 11.47614 | 107.75674 | 21796 ft | 403 kts | 218° |
| 2026-05-05 01:17 | 11.45413 | 107.73921 | 21279 ft | 401 kts | 218° |
| 2026-05-05 01:17 | 11.43237 | 107.72189 | 20751 ft | 400 kts | 217° |
| 2026-05-05 01:17 | 11.41032 | 107.70432 | 20201 ft | 399 kts | 217° |
| 2026-05-05 01:17 | 11.38860 | 107.68705 | 19658 ft | 398 kts | 217° |
| 2026-05-05 01:18 | 11.36684 | 107.66975 | 19107 ft | 397 kts | 217° |
| 2026-05-05 01:18 | 11.34485 | 107.65226 | 18548 ft | 396 kts | 217° |
| 2026-05-05 01:18 | 11.32339 | 107.63520 | 18006 ft | 395 kts | 217° |
| 2026-05-05 01:18 | 11.30156 | 107.61783 | 17447 ft | 394 kts | 217° |
| 2026-05-05 01:19 | 11.28014 | 107.60079 | 16904 ft | 393 kts | 217° |
| 2026-05-05 01:19 | 11.25879 | 107.58382 | 16363 ft | 391 kts | 217° |
| 2026-05-05 01:19 | 11.23735 | 107.56679 | 15823 ft | 389 kts | 217° |
| 2026-05-05 01:19 | 11.21605 | 107.54987 | 15289 ft | 388 kts | 217° |
| 2026-05-05 01:20 | 11.19478 | 107.53297 | 14747 ft | 386 kts | 217° |
| 2026-05-05 01:20 | 11.17364 | 107.51618 | 14204 ft | 377 kts | 217° |
| 2026-05-05 01:20 | 11.15357 | 107.50022 | 13693 ft | 365 kts | 217° |
| 2026-05-05 01:20 | 11.13376 | 107.48449 | 13194 ft | 354 kts | 217° |
| 2026-05-05 01:21 | 11.11471 | 107.46936 | 12709 ft | 344 kts | 217° |
| 2026-05-05 01:21 | 11.09596 | 107.45447 | 12231 ft | 336 kts | 217° |
| 2026-05-05 01:21 | 11.07752 | 107.43984 | 11763 ft | 334 kts | 217° |
| 2026-05-05 01:21 | 11.05927 | 107.42535 | 11387 ft | 330 kts | 217° |
| 2026-05-05 01:22 | 11.04150 | 107.41124 | 11140 ft | 322 kts | 217° |
| 2026-05-05 01:22 | 11.02420 | 107.39708 | 11002 ft | 310 kts | 223° |
| 2026-05-05 01:22 | 11.01152 | 107.37985 | 10976 ft | 307 kts | 243° |
| 2026-05-05 01:22 | 11.00418 | 107.35938 | 10938 ft | 311 kts | 253° |
| 2026-05-05 01:23 | 10.99819 | 107.33816 | 10907 ft | 311 kts | 253° |
| 2026-05-05 01:23 | 10.99226 | 107.31684 | 10644 ft | 314 kts | 253° |
| 2026-05-05 01:23 | 10.98616 | 107.29549 | 10185 ft | 315 kts | 253° |
| 2026-05-05 01:23 | 10.97997 | 107.27430 | 9752 ft | 314 kts | 253° |
| 2026-05-05 01:24 | 10.97297 | 107.25344 | 9309 ft | 314 kts | 242° |
| 2026-05-05 01:24 | 10.95870 | 107.23713 | 9022 ft | 301 kts | 208° |
| 2026-05-05 01:24 | 10.93919 | 107.23130 | 9015 ft | 293 kts | 177° |
| 2026-05-05 01:24 | 10.91910 | 107.23412 | 9029 ft | 291 kts | 166° |
| 2026-05-05 01:25 | 10.89901 | 107.23795 | 9024 ft | 291 kts | 167° |
| 2026-05-05 01:25 | 10.87905 | 107.24081 | 8923 ft | 294 kts | 175° |
| 2026-05-05 01:25 | 10.85898 | 107.23625 | 8485 ft | 301 kts | 205° |
| 2026-05-05 01:25 | 10.84270 | 107.22289 | 8130 ft | 301 kts | 232° |
| 2026-05-05 01:26 | 10.83402 | 107.20395 | 7829 ft | 299 kts | 259° |
| 2026-05-05 01:26 | 10.83402 | 107.18293 | 7571 ft | 297 kts | 278° |
| 2026-05-05 01:26 | 10.83696 | 107.16220 | 7327 ft | 295 kts | 279° |
| 2026-05-05 01:26 | 10.83991 | 107.14154 | 7077 ft | 295 kts | 279° |
| 2026-05-05 01:27 | 10.84272 | 107.12107 | 6757 ft | 294 kts | 279° |
| 2026-05-05 01:27 | 10.84545 | 107.10046 | 6422 ft | 291 kts | 278° |
| 2026-05-05 01:27 | 10.84804 | 107.08048 | 6139 ft | 286 kts | 278° |
| 2026-05-05 01:27 | 10.85061 | 107.06049 | 5844 ft | 280 kts | 278° |
| 2026-05-05 01:28 | 10.85306 | 107.04112 | 5552 ft | 274 kts | 278° |
| 2026-05-05 01:28 | 10.85549 | 107.02203 | 5261 ft | 267 kts | 278° |
| 2026-05-05 01:28 | 10.85781 | 107.00367 | 4976 ft | 262 kts | 278° |
| 2026-05-05 01:28 | 10.86012 | 106.98537 | 4693 ft | 257 kts | 279° |
| 2026-05-05 01:29 | 10.86238 | 106.96748 | 4458 ft | 257 kts | 279° |
| 2026-05-05 01:29 | 10.86467 | 106.94935 | 4233 ft | 256 kts | 279° |
| 2026-05-05 01:29 | 10.86689 | 106.93179 | 4118 ft | 245 kts | 279° |
| 2026-05-05 01:29 | 10.86899 | 106.91503 | 4053 ft | 231 kts | 279° |
| 2026-05-05 01:30 | 10.87113 | 106.89933 | 4035 ft | 222 kts | 281° |
| 2026-05-05 01:30 | 10.87365 | 106.88380 | 4064 ft | 223 kts | 281° |
| 2026-05-05 01:30 | 10.87620 | 106.86829 | 3767 ft | 220 kts | 281° |
| 2026-05-05 01:30 | 10.87865 | 106.85332 | 3545 ft | 211 kts | 281° |
| 2026-05-05 01:31 | 10.88097 | 106.83897 | 3381 ft | 198 kts | 282° |
| 2026-05-05 01:31 | 10.88220 | 106.82525 | 3137 ft | 192 kts | 270° |
| 2026-05-05 01:31 | 10.88010 | 106.81203 | 2892 ft | 188 kts | 257° |
| 2026-05-05 01:31 | 10.87624 | 106.79947 | 2663 ft | 187 kts | 252° |
| 2026-05-05 01:32 | 10.87171 | 106.78701 | 2435 ft | 187 kts | 251° |
| 2026-05-05 01:32 | 10.86697 | 106.77460 | 2204 ft | 187 kts | 250° |
| 2026-05-05 01:32 | 10.86227 | 106.76231 | 1971 ft | 188 kts | 251° |
| 2026-05-05 01:32 | 10.85765 | 106.75014 | 1721 ft | 177 kts | 250° |
| 2026-05-05 01:33 | 10.85340 | 106.73891 | 1513 ft | 165 kts | 251° |
| 2026-05-05 01:33 | 10.84932 | 106.72807 | 1304 ft | 163 kts | 250° |
| 2026-05-05 01:33 | 10.84528 | 106.71734 | 1106 ft | 162 kts | 250° |
| 2026-05-05 01:33 | 10.84124 | 106.70660 | 900 ft | 161 kts | 250° |
| 2026-05-05 01:34 | 10.83724 | 106.69594 | 701 ft | 160 kts | 250° |
| 2026-05-05 01:34 | 10.83322 | 106.68539 | 498 ft | 160 kts | 249° |
| 2026-05-05 01:34 | 10.82923 | 106.67501 | 286 ft | 159 kts | 250° |
| 2026-05-05 01:34 | 10.82536 | 106.66447 | 83 ft | 158 kts | 250° |
| 2026-05-05 01:35 | 10.82170 | 106.65479 | 32 ft | 120 kts | 248° |
| 2026-05-05 01:35 | 10.81967 | 106.64944 | 29 ft | 60 kts | 249° |
| 2026-05-05 01:35 | 10.81837 | 106.64600 | 27 ft | 43 kts | 249° |
| 2026-05-05 01:35 | 10.81697 | 106.64373 | 25 ft | 28 kts | 218° |
| 2026-05-05 01:36 | 10.81611 | 106.64317 | 25 ft | 8 kts | 202° |
| 2026-05-05 01:36 | 10.81548 | 106.64306 | 25 ft | 9 kts | 180° |
| 2026-05-05 01:36 | 10.81480 | 106.64316 | 25 ft | 10 kts | 164° |
| 2026-05-05 01:36 | 10.81409 | 106.64341 | 25 ft | 11 kts | 159° |
| 2026-05-05 01:37 | 10.81334 | 106.64370 | 25 ft | 11 kts | 159° |
| 2026-05-05 01:37 | 10.81256 | 106.64403 | 25 ft | 11 kts | 143° |
| 2026-05-05 01:37 | 10.81264 | 106.64481 | 25 ft | 12 kts | 68° |
| 2026-05-05 01:37 | 10.81295 | 106.64565 | 25 ft | 12 kts | 69° |
| 2026-05-05 01:38 | 10.81329 | 106.64652 | 25 ft | 13 kts | 69° |
| 2026-05-05 01:38 | 10.81362 | 106.64741 | 25 ft | 13 kts | 69° |
| 2026-05-05 01:38 | 10.81397 | 106.64833 | 25 ft | 14 kts | 69° |
| 2026-05-05 01:38 | 10.81430 | 106.64921 | 25 ft | 10 kts | 69° |
| 2026-05-05 01:39 | 10.81437 | 106.64993 | 25 ft | 10 kts | 113° |
| 2026-05-05 01:39 | 10.81373 | 106.65033 | 25 ft | 11 kts | 157° |
| 2026-05-05 01:39 | 10.81297 | 106.65064 | 26 ft | 11 kts | 161° |
| 2026-05-05 01:39 | 10.81253 | 106.65080 | 27 ft | 3 kts | 160° |
| 2026-05-05 01:40 | 10.81236 | 106.65090 | 27 ft | 2 kts | 120° |
| 2026-05-05 01:40 | 10.81240 | 106.65108 | 27 ft | 3 kts | 69° |
| 2026-05-05 01:40 | 10.81250 | 106.65136 | 27 ft | 4 kts | 69° |
| 2026-05-05 01:40 | 10.81262 | 106.65166 | 27 ft | 4 kts | 69° |
| 2026-05-05 01:41 | 10.81273 | 106.65195 | 27 ft | 3 kts | 69° |
| 2026-05-05 01:41 | 10.81281 | 106.65216 | 27 ft | 2 kts | 70° |
| 2026-05-05 01:41 | 10.81287 | 106.65233 | 28 ft | 2 kts | 70° |
| 2026-05-05 01:41 | 10.81293 | 106.65250 | 28 ft | 2 kts | 70° |
| 2026-05-05 01:42 | 10.81300 | 106.65270 | 28 ft | 3 kts | 68° |
| 2026-05-05 01:42 | 10.81309 | 106.65296 | 28 ft | 3 kts | 84° |
| 2026-05-05 01:42 | 10.81299 | 106.65312 | 29 ft | 2 kts | 145° |
| 2026-05-05 01:42 | 10.81291 | 106.65316 | 29 ft | 1 kts | 158° |
| 2026-05-05 01:43 | 10.81282 | 106.65320 | 29 ft | 1 kts | 158° |
| 2026-05-05 01:43 | 10.81272 | 106.65324 | 29 ft | 0 kts | 159° |